METAR Data
IDs: Format: Raw Decoded Include TAF

Data at: 0934 UTC 18 Jan 2022

LTFJ 180920Z 34017G30KT 4000 -SHSN SCT009 BKN030 BKN080 03/M02 Q1023 RESHSNRA NOSIG RMK RWY24 34015KT 310V010